createdAt,value
2018-06-28T00:00:49.823Z,18.01
2018-06-28T00:01:49.808Z,17.98
2018-06-28T00:02:49.807Z,18.01
2018-06-28T00:03:49.803Z,17.95
2018-06-28T00:04:49.798Z,17.98
2018-06-28T00:05:49.796Z,17.89
2018-06-28T00:06:49.785Z,17.87
2018-06-28T00:07:49.781Z,17.87
2018-06-28T00:08:49.840Z,17.86
2018-06-28T00:09:49.767Z,17.89
2018-06-28T00:10:49.764Z,17.89
2018-06-28T00:11:49.758Z,17.85
2018-06-28T00:12:49.751Z,17.74
2018-06-28T00:13:49.752Z,17.87
2018-06-28T00:14:49.740Z,17.80
2018-06-28T00:15:49.746Z,17.80
2018-06-28T00:16:49.730Z,17.82
2018-06-28T00:17:49.731Z,17.78
2018-06-28T00:18:49.722Z,17.86
2018-06-28T00:19:49.719Z,17.76
2018-06-28T00:20:49.712Z,17.85
2018-06-28T00:21:49.705Z,17.74
2018-06-28T00:22:49.708Z,17.79
2018-06-28T00:23:49.695Z,17.71
2018-06-28T00:24:49.694Z,17.72
2018-06-28T00:25:49.687Z,17.70
2018-06-28T00:26:49.683Z,17.70
2018-06-28T00:27:49.676Z,17.70
2018-06-28T00:28:49.668Z,17.68
2018-06-28T00:29:49.670Z,17.72
2018-06-28T00:30:49.660Z,17.65
2018-06-28T00:31:49.657Z,17.65
2018-06-28T00:32:49.650Z,17.68
2018-06-28T00:33:49.646Z,17.72
2018-06-28T00:34:49.636Z,17.65
2018-06-28T00:35:49.634Z,17.67
2018-06-28T00:36:49.625Z,17.63
2018-06-28T00:37:49.648Z,17.56
2018-06-28T00:38:49.631Z,17.54
2018-06-28T00:39:49.611Z,17.56
2018-06-28T00:40:49.608Z,17.57
2018-06-28T00:41:49.603Z,17.57
2018-06-28T00:42:49.593Z,17.51
2018-06-28T00:43:49.642Z,17.54
2018-06-28T00:44:49.593Z,17.54
2018-06-28T00:45:49.578Z,17.54
2018-06-28T00:46:49.576Z,17.56
2018-06-28T00:47:49.571Z,17.52
2018-06-28T00:48:49.566Z,17.45
2018-06-28T00:49:49.564Z,17.46
2018-06-28T00:50:49.551Z,17.52
2018-06-28T00:51:49.548Z,17.42
2018-06-28T00:52:49.545Z,17.48
2018-06-28T00:53:49.540Z,17.44
2018-06-28T00:54:49.533Z,17.41
2018-06-28T00:55:49.523Z,17.45
2018-06-28T00:56:49.529Z,17.36
2018-06-28T00:57:49.514Z,17.34
2018-06-28T00:58:49.505Z,17.42
2018-06-28T00:59:49.505Z,17.44
2018-06-28T01:00:49.526Z,17.31
2018-06-28T01:01:49.496Z,17.31
2018-06-28T01:02:49.489Z,17.38
2018-06-28T01:03:49.480Z,17.26
2018-06-28T01:04:49.487Z,17.31
2018-06-28T01:05:49.471Z,17.22
2018-06-28T01:06:49.466Z,17.30
2018-06-28T01:07:49.458Z,17.20
2018-06-28T01:08:49.455Z,17.20
2018-06-28T01:09:49.449Z,17.19
2018-06-28T01:10:49.447Z,17.16
2018-06-28T01:11:49.443Z,17.19
2018-06-28T01:12:49.432Z,17.14
2018-06-28T01:13:49.425Z,17.08
2018-06-28T01:14:49.422Z,17.20
2018-06-28T01:15:49.413Z,17.09
2018-06-28T01:16:49.417Z,17.09
2018-06-28T01:17:49.407Z,17.08
2018-06-28T01:18:49.394Z,17.05
2018-06-28T01:19:49.396Z,17.01
2018-06-28T01:20:49.387Z,17.06
2018-06-28T01:21:49.383Z,17.16
2018-06-28T01:22:49.375Z,16.97
2018-06-28T01:23:49.370Z,17.11
2018-06-28T01:24:49.368Z,17.08
2018-06-28T01:25:49.359Z,17.04
2018-06-28T01:26:49.349Z,17.06
2018-06-28T01:27:49.348Z,17.06
2018-06-28T01:28:49.346Z,17.02
2018-06-28T01:29:49.342Z,16.99
2018-06-28T01:30:49.328Z,16.96
2018-06-28T01:31:49.324Z,17.04
2018-06-28T01:32:49.340Z,16.97
2018-06-28T01:33:49.318Z,16.97
2018-06-28T01:34:49.315Z,16.96
2018-06-28T01:35:49.305Z,17.05
2018-06-28T01:36:49.299Z,16.99
2018-06-28T01:37:49.291Z,16.99
2018-06-28T01:38:49.284Z,16.90
2018-06-28T01:39:49.278Z,16.86
2018-06-28T01:40:49.279Z,16.86
2018-06-28T01:41:49.272Z,16.87
2018-06-28T01:42:49.265Z,16.89
2018-06-28T01:43:49.267Z,16.89
2018-06-28T01:44:49.261Z,16.86
2018-06-28T01:45:49.252Z,16.84
2018-06-28T01:46:49.266Z,16.89
2018-06-28T01:47:49.300Z,16.89
2018-06-28T01:48:49.232Z,16.89
2018-06-28T01:49:49.230Z,16.86
2018-06-28T01:50:49.220Z,16.84
2018-06-28T01:51:49.215Z,16.84
2018-06-28T01:52:49.211Z,16.89
2018-06-28T01:53:49.201Z,16.74
2018-06-28T01:54:49.212Z,16.76
2018-06-28T01:55:49.193Z,16.79
2018-06-28T01:56:49.188Z,16.71
2018-06-28T01:57:49.177Z,16.72
2018-06-28T01:58:49.174Z,16.76
2018-06-28T01:59:49.167Z,16.76
2018-06-28T02:00:49.161Z,16.69
2018-06-28T02:01:49.159Z,16.74
2018-06-28T02:02:49.163Z,16.65
2018-06-28T02:03:49.149Z,16.65
2018-06-28T02:04:49.141Z,16.61
2018-06-28T02:05:49.158Z,16.64
2018-06-28T02:06:49.131Z,16.60
2018-06-28T02:07:49.119Z,16.64
2018-06-28T02:08:49.131Z,16.69
2018-06-28T02:09:49.123Z,16.51
2018-06-28T02:10:49.112Z,16.56
2018-06-28T02:11:49.103Z,16.56
2018-06-28T02:12:49.096Z,16.60
2018-06-28T02:13:49.091Z,16.57
2018-06-28T02:14:49.080Z,16.60
2018-06-28T02:15:49.078Z,16.60
2018-06-28T02:16:49.072Z,16.39
2018-06-28T02:17:49.066Z,16.43
2018-06-28T02:18:49.061Z,16.46
2018-06-28T02:19:49.054Z,16.47
2018-06-28T02:20:49.046Z,16.47
2018-06-28T02:21:49.041Z,16.46
2018-06-28T02:22:49.037Z,16.46
2018-06-28T02:23:49.036Z,16.46
2018-06-28T02:24:49.029Z,16.42
2018-06-28T02:25:49.020Z,16.43
2018-06-28T02:26:49.015Z,16.39
2018-06-28T02:27:49.005Z,16.42
2018-06-28T02:28:49.009Z,16.43
2018-06-28T02:29:48.997Z,16.39
2018-06-28T02:30:48.992Z,16.49
2018-06-28T02:31:48.984Z,16.36
2018-06-28T02:32:48.981Z,16.36
2018-06-28T02:33:48.970Z,16.36
2018-06-28T02:34:49.710Z,16.39
2018-06-28T02:35:48.960Z,16.36
2018-06-28T02:36:48.953Z,16.38
2018-06-28T02:37:48.949Z,16.38
2018-06-28T02:38:48.948Z,16.33
2018-06-28T02:39:48.940Z,16.35
2018-06-28T02:40:48.945Z,16.33
2018-06-28T02:41:48.926Z,16.31
2018-06-28T02:42:48.921Z,16.39
2018-06-28T02:43:48.940Z,16.21
2018-06-28T02:44:48.914Z,16.24
2018-06-28T02:45:48.904Z,16.24
2018-06-28T02:46:48.899Z,16.28
2018-06-28T02:47:48.890Z,16.13
2018-06-28T02:48:48.886Z,16.15
2018-06-28T02:49:48.877Z,16.20
2018-06-28T02:50:48.872Z,16.16
2018-06-28T02:51:48.876Z,16.04
2018-06-28T02:52:48.864Z,16.13
2018-06-28T02:53:48.859Z,16.04
2018-06-28T02:54:48.850Z,16.05
2018-06-28T02:55:48.851Z,16.09
2018-06-28T02:56:48.837Z,16.10
2018-06-28T02:57:48.830Z,16.08
2018-06-28T02:58:48.825Z,16.02
2018-06-28T02:59:48.823Z,16.02
2018-06-28T03:00:48.816Z,16.10
2018-06-28T03:01:48.814Z,15.94
2018-06-28T03:02:48.804Z,16.09
2018-06-28T03:03:48.798Z,16.10
2018-06-28T03:04:48.793Z,16.05
2018-06-28T03:05:48.794Z,16.04
2018-06-28T03:06:48.795Z,16.04
2018-06-28T03:07:48.775Z,16.01
2018-06-28T03:08:48.771Z,16.00
2018-06-28T03:09:48.766Z,15.94
2018-06-28T03:10:48.759Z,15.92
2018-06-28T03:11:48.751Z,16.12
2018-06-28T03:12:48.749Z,16.04
2018-06-28T03:13:48.743Z,15.94
2018-06-28T03:14:48.729Z,16.00
2018-06-28T03:15:48.727Z,16.04
2018-06-28T03:16:48.731Z,15.98
2018-06-28T03:17:48.714Z,16.02
2018-06-28T03:18:48.716Z,16.10
2018-06-28T03:19:48.706Z,16.13
2018-06-28T03:20:48.701Z,16.04
2018-06-28T03:21:48.693Z,16.05
2018-06-28T03:22:48.687Z,16.05
2018-06-28T03:23:48.683Z,16.04
2018-06-28T03:24:48.676Z,16.04
2018-06-28T03:25:48.669Z,16.09
2018-06-28T03:26:48.662Z,16.09
2018-06-28T03:27:48.653Z,16.04
2018-06-28T03:28:48.647Z,16.09
2018-06-28T03:29:48.640Z,16.05
2018-06-28T03:30:48.641Z,16.05
2018-06-28T03:31:48.636Z,16.05
2018-06-28T03:32:48.629Z,16.09
2018-06-28T03:33:48.623Z,16.05
2018-06-28T03:34:48.613Z,16.08
2018-06-28T03:35:48.604Z,16.08
2018-06-28T03:36:48.603Z,16.05
2018-06-28T03:37:49.345Z,16.02
2018-06-28T03:38:48.586Z,16.05
2018-06-28T03:39:48.578Z,15.98
2018-06-28T03:40:48.575Z,16.04
2018-06-28T03:41:48.573Z,16.01
2018-06-28T03:42:48.567Z,16.09
2018-06-28T03:43:48.560Z,16.08
2018-06-28T03:44:48.547Z,16.01
2018-06-28T03:45:48.576Z,15.98
2018-06-28T03:46:48.547Z,15.95
2018-06-28T03:47:48.536Z,16.04
2018-06-28T03:48:48.529Z,16.01
2018-06-28T03:49:48.525Z,16.05
2018-06-28T03:50:48.517Z,15.94
2018-06-28T03:51:48.514Z,16.04
2018-06-28T03:52:48.506Z,16.01
2018-06-28T03:53:48.499Z,16.05
2018-06-28T03:54:48.495Z,16.04
2018-06-28T03:55:48.483Z,16.05
2018-06-28T03:56:48.484Z,16.05
2018-06-28T03:57:48.472Z,16.05
2018-06-28T03:58:48.481Z,16.02
2018-06-28T03:59:48.465Z,16.08
2018-06-28T04:00:48.453Z,16.10
2018-06-28T04:01:48.450Z,16.12
2018-06-28T04:02:48.443Z,16.13
2018-06-28T04:03:48.439Z,16.12
2018-06-28T04:04:48.431Z,16.21
2018-06-28T04:05:48.425Z,16.16
2018-06-28T04:06:48.426Z,16.13
2018-06-28T04:07:48.420Z,16.13
2018-06-28T04:08:48.409Z,16.26
2018-06-28T04:09:48.404Z,16.10
2018-06-28T04:10:48.401Z,16.26
2018-06-28T04:11:48.390Z,16.12
2018-06-28T04:12:48.389Z,16.17
2018-06-28T04:13:48.379Z,16.13
2018-06-28T04:14:48.373Z,16.29
2018-06-28T04:15:48.365Z,16.15
2018-06-28T04:16:48.459Z,16.28
2018-06-28T04:17:48.355Z,16.24
2018-06-28T04:18:48.344Z,16.20
2018-06-28T04:19:48.340Z,16.10
2018-06-28T04:20:48.338Z,16.23
2018-06-28T04:21:48.332Z,16.21
2018-06-28T04:22:48.326Z,16.21
2018-06-28T04:23:48.323Z,16.26
2018-06-28T04:24:48.311Z,16.23
2018-06-28T04:25:48.313Z,16.26
2018-06-28T04:26:48.307Z,16.28
2018-06-28T04:27:48.293Z,16.26
2018-06-28T04:28:48.296Z,16.21
2018-06-28T04:29:48.284Z,16.24
2018-06-28T04:30:48.280Z,16.32
2018-06-28T04:31:48.273Z,16.33
2018-06-28T04:32:48.269Z,16.29
2018-06-28T04:33:48.259Z,16.35
2018-06-28T04:34:48.251Z,16.33
2018-06-28T04:35:48.254Z,16.41
2018-06-28T04:36:48.245Z,16.41
2018-06-28T04:37:48.242Z,16.47
2018-06-28T04:38:48.260Z,16.41
2018-06-28T04:39:48.228Z,16.49
2018-06-28T04:40:48.223Z,16.46
2018-06-28T04:41:48.218Z,16.56
2018-06-28T04:42:48.207Z,16.58
2018-06-28T04:43:48.203Z,16.57
2018-06-28T04:44:48.196Z,16.65
2018-06-28T04:45:48.194Z,16.78
2018-06-28T04:46:48.185Z,16.83
2018-06-28T04:47:48.190Z,16.84
2018-06-28T04:48:48.175Z,16.94
2018-06-28T04:49:48.233Z,16.97
2018-06-28T04:50:48.197Z,17.09
2018-06-28T04:51:48.164Z,17.01
2018-06-28T04:52:48.150Z,17.16
2018-06-28T04:53:48.148Z,17.11
2018-06-28T04:54:48.165Z,17.26
2018-06-28T04:55:48.131Z,17.34
2018-06-28T04:56:48.125Z,17.46
2018-06-28T04:57:48.124Z,17.51
2018-06-28T04:58:48.118Z,17.54
2018-06-28T04:59:48.110Z,17.83
2018-06-28T05:00:48.104Z,17.87
2018-06-28T05:01:48.102Z,17.97
2018-06-28T05:02:48.091Z,17.97
2018-06-28T05:03:48.088Z,18.03
2018-06-28T05:04:48.085Z,18.07
2018-06-28T05:05:48.079Z,18.15
2018-06-28T05:06:48.075Z,18.20
2018-06-28T05:07:48.068Z,18.25
2018-06-28T05:08:48.064Z,18.29
2018-06-28T05:09:48.056Z,18.37
2018-06-28T05:10:48.051Z,18.58
2018-06-28T05:11:48.044Z,18.78
2018-06-28T05:12:48.044Z,18.73
2018-06-28T05:13:48.037Z,18.88
2018-06-28T05:14:48.032Z,18.89
2018-06-28T05:15:48.030Z,18.93
2018-06-28T05:16:48.017Z,19.08
2018-06-28T05:17:48.014Z,19.07
2018-06-28T05:18:48.012Z,19.21
2018-06-28T05:19:48.006Z,19.24
2018-06-28T05:20:48.001Z,19.26
2018-06-28T05:21:47.999Z,19.34
2018-06-28T05:22:47.987Z,19.30
2018-06-28T05:23:48.707Z,19.54
2018-06-28T05:24:47.980Z,19.44
2018-06-28T05:25:47.977Z,19.55
2018-06-28T05:26:47.969Z,19.55
2018-06-28T05:27:47.964Z,19.62
2018-06-28T05:28:47.960Z,19.71
2018-06-28T05:29:47.957Z,19.74
2018-06-28T05:30:47.948Z,19.77
2018-06-28T05:31:47.943Z,19.82
2018-06-28T05:32:47.966Z,19.85
2018-06-28T05:33:47.935Z,19.92
2018-06-28T05:34:47.938Z,19.94
2018-06-28T05:35:47.928Z,20.03
2018-06-28T05:36:47.918Z,20.09
2018-06-28T05:37:47.915Z,20.21
2018-06-28T05:38:47.913Z,20.14
2018-06-28T05:39:47.907Z,20.34
2018-06-28T05:40:47.903Z,20.58
2018-06-28T05:41:47.901Z,20.66
2018-06-28T05:42:47.992Z,20.62
2018-06-28T05:43:47.897Z,20.81
2018-06-28T05:44:47.889Z,20.87
2018-06-28T05:45:47.890Z,20.96
2018-06-28T05:46:47.885Z,21.07
2018-06-28T05:47:47.886Z,21.09
2018-06-28T05:48:47.880Z,21.15
2018-06-28T05:49:47.875Z,21.07
2018-06-28T05:50:47.871Z,21.06
2018-06-28T05:51:47.864Z,21.12
2018-06-28T05:52:47.868Z,21.32
2018-06-28T05:53:47.868Z,21.29
2018-06-28T05:54:47.863Z,21.36
2018-06-28T05:55:47.862Z,21.43
2018-06-28T05:56:47.860Z,21.50
2018-06-28T05:57:47.856Z,21.55
2018-06-28T05:58:47.849Z,21.57
2018-06-28T05:59:48.185Z,21.67
2018-06-28T06:00:48.228Z,21.70
2018-06-28T06:01:50.742Z,21.82
2018-06-28T06:02:49.776Z,22.00
2018-06-28T06:03:48.223Z,22.08
2018-06-28T06:04:48.200Z,22.20
2018-06-28T06:05:50.416Z,22.30
2018-06-28T06:06:48.356Z,22.33
2018-06-28T06:07:48.844Z,22.36
2018-06-28T06:08:48.793Z,22.47
2018-06-28T06:09:48.806Z,22.50
2018-06-28T06:10:49.200Z,22.55
2018-06-28T06:11:49.679Z,22.57
2018-06-28T06:12:48.595Z,22.68
2018-06-28T06:13:48.841Z,22.75
2018-06-28T06:14:48.424Z,22.90
2018-06-28T06:15:56.164Z,22.91
2018-06-28T06:18:26.940Z,23.09
